Time;durP1;ratioP1;P1;durP2;ratioP2;P2;SDS_P1;SDS_P2;PMS_P1;PMS_P2;Temp;Humidity;BMP_temperature;BMP_pressure;BME280_temperature;BME280_humidity;BME280_pressure;Samples;Min_cycle;Max_cycle;Signal;HPM_P1;HPM_P2
2023/09/20 00:00:24;;;;;;;7.28;3.45;;;17.30;99.90;;;;;;4980360;28;20328;-84
2023/09/20 00:02:50;;;;;;;9.98;3.15;;;17.40;99.90;;;;;;4997461;28;20160;-84
2023/09/20 00:05:18;;;;;;;6.07;2.60;;;17.30;99.90;;;;;;4980688;28;20176;-83
2023/09/20 00:07:43;;;;;;;3.83;2.90;;;17.30;99.90;;;;;;4980378;28;20216;-86
2023/09/20 00:10:14;;;;;;;6.80;3.05;;;17.30;99.90;;;;;;4979355;28;20196;-86
2023/09/20 00:12:44;;;;;;;9.18;3.30;;;17.30;99.90;;;;;;4997533;28;20149;-86
2023/09/20 00:15:11;;;;;;;4.78;2.83;;;17.30;99.90;;;;;;4980214;28;20284;-86
2023/09/20 00:17:37;;;;;;;8.68;3.30;;;17.30;99.90;;;;;;4979787;28;20189;-86
2023/09/20 00:20:06;;;;;;;7.00;3.15;;;17.40;99.90;;;;;;4996639;28;20220;-85
2023/09/20 00:22:32;;;;;;;7.63;2.90;;;17.30;99.90;;;;;;4979607;28;20235;-86
2023/09/20 00:24:59;;;;;;;8.88;3.20;;;17.40;99.90;;;;;;4997230;28;20187;-85
2023/09/20 00:27:25;;;;;;;9.02;2.85;;;17.40;99.90;;;;;;4979422;28;20204;-86
2023/09/20 00:29:51;;;;;;;7.32;3.03;;;17.40;99.90;;;;;;4979810;28;20193;-83
2023/09/20 00:32:17;;;;;;;11.45;2.88;;;17.40;99.90;;;;;;4972372;28;20263;-82
2023/09/20 00:34:42;;;;;;;6.75;2.85;;;17.40;99.90;;;;;;4979663;28;20611;-82
2023/09/20 00:37:08;;;;;;;6.90;2.90;;;17.40;99.90;;;;;;4979503;28;20215;-83
2023/09/20 00:39:34;;;;;;;11.10;3.00;;;17.40;99.90;;;;;;4979606;28;20200;-83
2023/09/20 00:42:00;;;;;;;6.30;2.92;;;17.40;99.90;;;;;;4980228;28;20176;-83
2023/09/20 00:44:25;;;;;;;7.18;3.10;;;17.40;99.90;;;;;;4997301;28;20180;-83
2023/09/20 00:46:52;;;;;;;5.13;3.13;;;17.40;99.90;;;;;;4979506;28;20230;-83
2023/09/20 00:49:20;;;;;;;5.93;2.75;;;17.40;99.90;;;;;;4995770;28;20229;-84
2023/09/20 00:51:47;;;;;;;8.25;3.17;;;17.30;99.90;;;;;;4979908;28;20177;-83
2023/09/20 00:54:15;;;;;;;7.78;2.90;;;17.40;99.90;;;;;;4979274;28;20173;-83
2023/09/20 00:56:41;;;;;;;10.38;2.95;;;17.30;99.90;;;;;;4979784;28;20184;-84
2023/09/20 00:59:07;;;;;;;5.47;2.60;;;17.40;99.90;;;;;;4980216;28;20188;-83
2023/09/20 01:01:34;;;;;;;6.50;2.72;;;17.30;99.90;;;;;;4989057;28;20200;-83
2023/09/20 01:04:02;;;;;;;6.97;3.05;;;17.20;99.90;;;;;;4983223;28;20184;-83
2023/09/20 01:06:28;;;;;;;4.63;2.90;;;17.20;99.90;;;;;;4983414;28;20263;-83
2023/09/20 01:08:54;;;;;;;8.38;3.17;;;17.10;99.90;;;;;;4982867;28;20239;-83
2023/09/20 01:11:21;;;;;;;5.53;3.13;;;17.10;99.90;;;;;;4999568;28;20188;-84
2023/09/20 01:13:47;;;;;;;6.68;2.97;;;17.20;99.90;;;;;;4981714;28;20235;-83
2023/09/20 01:16:16;;;;;;;3.95;2.78;;;17.30;99.90;;;;;;4998784;28;20192;-83
2023/09/20 01:18:45;;;;;;;4.88;2.90;;;17.30;99.90;;;;;;4997097;28;20180;-84
2023/09/20 01:21:13;;;;;;;6.55;3.10;;;17.30;99.90;;;;;;4980983;28;20204;-83
2023/09/20 01:23:49;;;;;;;8.25;2.92;;;17.30;99.90;;;;;;4998374;28;20203;-83
2023/09/20 01:26:16;;;;;;;4.45;2.70;;;17.30;99.90;;;;;;4998634;28;20642;-83
2023/09/20 01:28:42;;;;;;;5.97;3.20;;;17.40;99.90;;;;;;4980880;28;20211;-83
2023/09/20 01:31:08;;;;;;;5.10;3.05;;;17.40;99.90;;;;;;4998443;28;20192;-83
2023/09/20 01:33:34;;;;;;;7.13;3.20;;;17.30;99.90;;;;;;4981435;28;20655;-83
2023/09/20 01:35:59;;;;;;;8.43;3.47;;;17.30;99.90;;;;;;4980127;28;20648;-83
2023/09/20 01:38:26;;;;;;;6.93;2.88;;;17.30;99.90;;;;;;4980638;28;20188;-83
2023/09/20 01:40:55;;;;;;;9.43;3.00;;;17.30;99.90;;;;;;4996536;28;20196;-83
2023/09/20 01:43:22;;;;;;;9.60;3.13;;;17.30;99.90;;;;;;4982109;28;20203;-83
2023/09/20 01:45:47;;;;;;;4.60;2.90;;;17.30;99.90;;;;;;5004770;28;20176;-84
2023/09/20 01:48:13;;;;;;;8.82;3.45;;;17.30;99.90;;;;;;4999467;28;20219;-84
2023/09/20 01:50:42;;;;;;;3.88;2.70;;;17.30;99.90;;;;;;5014803;28;20200;-84
2023/09/20 01:53:09;;;;;;;7.28;3.40;;;17.20;99.90;;;;;;4986178;28;20639;-84
2023/09/20 01:55:42;;;;;;;8.70;3.10;;;17.20;99.90;;;;;;4980908;28;20177;-83
2023/09/20 01:58:12;;;;;;;7.55;3.13;;;17.20;99.90;;;;;;4979229;28;20697;-83
2023/09/20 02:00:40;;;;;;;6.65;3.28;;;17.20;99.90;;;;;;4979013;28;20215;-83
2023/09/20 02:03:10;;;;;;;5.90;3.17;;;17.10;99.90;;;;;;4978636;28;20240;-84
2023/09/20 02:05:39;;;;;;;4.32;2.95;;;17.10;99.90;;;;;;4978356;28;20283;-84
2023/09/20 02:08:07;;;;;;;5.57;2.80;;;17.10;99.90;;;;;;4978619;28;20215;-84
2023/09/20 02:10:36;;;;;;;9.80;3.28;;;17.00;99.90;;;;;;4994250;28;20283;-83
2023/09/20 02:13:03;;;;;;;8.90;3.05;;;17.00;99.90;;;;;;4978101;28;20183;-83
2023/09/20 02:15:30;;;;;;;7.63;3.17;;;17.00;99.90;;;;;;4978094;28;20659;-83
2023/09/20 02:17:56;;;;;;;7.95;3.10;;;16.90;99.90;;;;;;4977942;28;20554;-86
2023/09/20 02:20:23;;;;;;;7.30;3.70;;;16.90;99.90;;;;;;4977577;28;20299;-86
2023/09/20 02:22:55;;;;;;;6.82;3.30;;;16.90;99.90;;;;;;4979122;28;20188;-87
2023/09/20 02:25:22;;;;;;;7.65;3.28;;;16.90;99.90;;;;;;4981397;28;20250;-86
2023/09/20 02:27:49;;;;;;;6.90;3.42;;;16.80;99.90;;;;;;4981313;28;20200;-86
2023/09/20 02:30:16;;;;;;;5.95;3.17;;;16.80;99.90;;;;;;4981418;28;20203;-87
2023/09/20 02:32:52;;;;;;;5.22;3.15;;;16.80;99.90;;;;;;4981343;28;20183;-86
2023/09/20 02:35:18;;;;;;;6.28;3.25;;;16.80;99.90;;;;;;4981522;28;20267;-86
2023/09/20 02:37:46;;;;;;;6.82;3.00;;;16.70;99.90;;;;;;4982089;28;20184;-86
2023/09/20 02:40:14;;;;;;;9.95;3.70;;;16.70;99.90;;;;;;4981299;28;20204;-86
2023/09/20 02:42:52;;;;;;;6.63;2.65;;;16.70;99.90;;;;;;4981395;28;20562;-87
2023/09/20 02:45:19;;;;;;;9.60;3.38;;;16.70;99.90;;;;;;4980850;28;20195;-87
2023/09/20 02:47:48;;;;;;;4.85;3.28;;;16.70;99.90;;;;;;4997054;28;20705;-87
2023/09/20 02:50:22;;;;;;;6.30;2.97;;;16.70;99.90;;;;;;4980731;28;20208;-87
2023/09/20 02:52:48;;;;;;;4.95;2.70;;;16.60;99.90;;;;;;4998651;28;20227;-87
2023/09/20 02:55:17;;;;;;;6.50;3.35;;;16.60;99.90;;;;;;4981274;28;20184;-87
2023/09/20 02:57:44;;;;;;;6.70;2.80;;;16.60;99.90;;;;;;4980970;28;20184;-87
2023/09/20 03:00:16;;;;;;;7.68;3.63;;;16.60;99.90;;;;;;4980833;28;20220;-87
2023/09/20 03:03:02;;;;;;;5.72;3.15;;;16.60;99.90;;;;;;4981166;28;20639;-87
2023/09/20 03:05:30;;;;;;;5.13;3.35;;;16.50;99.90;;;;;;4980689;28;20169;-87
2023/09/20 03:07:56;;;;;;;8.77;3.28;;;16.50;99.90;;;;;;4981333;28;20713;-87
2023/09/20 03:10:23;;;;;;;6.90;3.40;;;16.40;99.90;;;;;;4981155;28;20235;-87
2023/09/20 03:12:51;;;;;;;5.32;2.78;;;16.50;99.90;;;;;;4981017;28;20182;-87
2023/09/20 03:15:22;;;;;;;7.47;3.47;;;16.50;99.90;;;;;;4980838;28;20196;-87
2023/09/20 03:18:14;;;;;;;6.28;3.58;;;16.40;99.90;;;;;;4980803;28;20200;-87
2023/09/20 03:20:43;;;;;;;8.52;3.30;;;16.50;99.90;;;;;;4977420;28;20219;-87
2023/09/20 03:23:09;;;;;;;6.07;3.00;;;16.50;99.90;;;;;;4998338;28;20184;-86
2023/09/20 03:25:38;;;;;;;7.20;3.15;;;16.50;99.90;;;;;;4998222;28;20173;-87
2023/09/20 03:28:08;;;;;;;10.00;3.50;;;16.50;99.90;;;;;;4980104;28;20204;-87
2023/09/20 03:30:36;;;;;;;6.85;3.30;;;16.50;99.90;;;;;;4997946;28;20602;-88
2023/09/20 03:33:02;;;;;;;12.50;3.30;;;16.70;99.90;;;;;;4997685;28;20180;-87
2023/09/20 03:35:28;;;;;;;7.95;3.08;;;16.70;99.90;;;;;;4980640;28;20176;-87
2023/09/20 03:37:54;;;;;;;8.68;3.20;;;16.60;99.90;;;;;;4980708;28;20188;-87
2023/09/20 03:40:21;;;;;;;8.25;3.50;;;16.70;99.90;;;;;;4980626;28;20565;-87
2023/09/20 03:42:48;;;;;;;7.28;3.25;;;16.70;99.90;;;;;;4998962;28;20176;-86
2023/09/20 03:45:15;;;;;;;5.50;3.20;;;16.60;99.90;;;;;;4982182;28;20192;-86
2023/09/20 03:47:47;;;;;;;4.70;2.90;;;16.60;99.90;;;;;;4982512;28;20211;-86
2023/09/20 03:50:13;;;;;;;5.93;3.00;;;16.60;99.90;;;;;;4998057;28;20196;-86
2023/09/20 03:52:39;;;;;;;7.03;3.58;;;16.60;99.90;;;;;;4980693;28;20176;-86
2023/09/20 03:55:06;;;;;;;6.53;3.45;;;16.60;99.90;;;;;;4980540;28;20183;-86
2023/09/20 03:57:33;;;;;;;7.55;3.30;;;16.50;99.90;;;;;;4997533;28;20558;-86
2023/09/20 03:59:59;;;;;;;4.75;3.22;;;16.60;99.90;;;;;;4998830;28;20200;-85
2023/09/20 04:02:26;;;;;;;6.40;3.47;;;16.50;99.90;;;;;;4990000;28;20203;-85
2023/09/20 04:04:53;;;;;;;7.72;3.45;;;16.50;99.90;;;;;;4982701;28;20190;-85
2023/09/20 04:07:23;;;;;;;8.82;3.55;;;16.60;99.90;;;;;;4980829;28;20262;-85
2023/09/20 04:09:48;;;;;;;4.45;3.10;;;16.60;99.90;;;;;;4996608;28;20663;-85
2023/09/20 04:12:14;;;;;;;5.43;3.00;;;16.60;99.90;;;;;;4997876;28;20181;-85
2023/09/20 04:14:43;;;;;;;7.00;3.10;;;16.60;99.90;;;;;;4980554;28;20173;-85
2023/09/20 04:17:09;;;;;;;4.07;2.72;;;16.70;99.90;;;;;;4980491;28;20207;-85
2023/09/20 04:19:39;;;;;;;6.82;2.80;;;16.70;99.90;;;;;;4980871;28;20183;-85
2023/09/20 04:22:05;;;;;;;6.35;3.67;;;16.70;99.90;;;;;;4980492;28;20185;-86
2023/09/20 04:24:32;;;;;;;9.82;3.53;;;16.70;99.90;;;;;;4981345;28;20184;-85
2023/09/20 04:26:58;;;;;;;5.55;3.13;;;16.70;99.90;;;;;;4998527;28;20216;-87
2023/09/20 04:29:25;;;;;;;8.10;3.17;;;16.70;99.90;;;;;;4980195;28;20219;-86
2023/09/20 04:31:52;;;;;;;4.95;3.25;;;16.70;99.90;;;;;;4979616;28;20181;-87
2023/09/20 04:34:18;;;;;;;7.72;3.35;;;16.70;99.90;;;;;;4971638;28;20184;-87
2023/09/20 04:36:45;;;;;;;6.32;2.80;;;16.70;99.90;;;;;;4997355;28;20173;-88
2023/09/20 04:39:11;;;;;;;4.07;2.70;;;16.80;99.90;;;;;;4979058;28;20183;-88
2023/09/20 04:41:38;;;;;;;6.30;3.10;;;16.70;99.90;;;;;;4995042;28;20253;-88
2023/09/20 04:44:07;;;;;;;10.68;3.22;;;16.70;99.90;;;;;;4978551;28;20184;-87
2023/09/20 04:46:35;;;;;;;4.40;2.83;;;16.70;99.90;;;;;;4996264;28;20180;-87
2023/09/20 04:49:01;;;;;;;6.18;2.85;;;16.70;99.90;;;;;;4996559;28;20250;-88
2023/09/20 04:51:26;;;;;;;7.28;3.15;;;16.70;99.90;;;;;;4990028;28;20196;-87
2023/09/20 04:53:53;;;;;;;6.18;3.03;;;16.70;99.90;;;;;;4997685;28;20208;-88
2023/09/20 04:56:19;;;;;;;10.38;3.58;;;16.70;99.90;;;;;;4995812;28;20172;-88
2023/09/20 04:58:44;;;;;;;5.78;3.17;;;16.70;99.90;;;;;;4996320;28;20259;-88
2023/09/20 05:01:11;;;;;;;5.03;3.05;;;16.70;99.90;;;;;;4978829;28;20204;-88
2023/09/20 05:03:39;;;;;;;6.70;2.92;;;16.70;99.90;;;;;;4978850;28;20180;-88
2023/09/20 05:06:05;;;;;;;4.80;3.20;;;16.60;99.90;;;;;;4996134;28;20176;-88
2023/09/20 05:08:31;;;;;;;7.88;3.35;;;16.60;99.90;;;;;;4978430;28;20207;-88
2023/09/20 05:10:57;;;;;;;6.43;2.55;;;16.60;99.90;;;;;;4994664;28;20201;-88
2023/09/20 05:13:23;;;;;;;6.32;2.78;;;16.60;99.90;;;;;;4978166;28;20181;-88
2023/09/20 05:15:50;;;;;;;4.60;3.15;;;16.60;99.90;;;;;;4978096;28;20207;-88
2023/09/20 05:18:16;;;;;;;5.30;3.40;;;16.60;99.90;;;;;;4978474;28;20203;-88
2023/09/20 05:20:45;;;;;;;4.85;3.10;;;16.60;99.90;;;;;;4994739;28;20254;-88
2023/09/20 05:23:11;;;;;;;7.72;3.55;;;16.60;99.90;;;;;;4996024;28;20207;-88
2023/09/20 05:25:37;;;;;;;5.75;3.03;;;16.60;99.90;;;;;;4996805;28;20176;-88
2023/09/20 05:28:06;;;;;;;4.90;3.10;;;16.60;99.90;;;;;;4978311;28;20571;-88
2023/09/20 05:30:32;;;;;;;7.70;3.10;;;16.60;99.90;;;;;;4978318;28;20283;-88
2023/09/20 05:32:59;;;;;;;11.40;3.13;;;16.60;99.90;;;;;;4979358;28;20211;-88
2023/09/20 05:35:26;;;;;;;6.40;2.75;;;16.70;99.90;;;;;;4994658;28;20187;-88
2023/09/20 05:37:52;;;;;;;7.50;3.45;;;16.70;99.90;;;;;;4978781;28;20181;-88
2023/09/20 05:40:18;;;;;;;4.20;2.90;;;16.60;99.90;;;;;;4994529;28;20215;-88
2023/09/20 05:42:50;;;;;;;8.57;3.20;;;16.60;99.90;;;;;;4977951;28;20192;-88
2023/09/20 05:45:16;;;;;;;4.53;2.78;;;16.70;99.90;;;;;;4977972;28;20674;-88
2023/09/20 05:47:43;;;;;;;6.05;3.30;;;16.70;99.90;;;;;;4977943;28;20208;-88
2023/09/20 05:50:10;;;;;;;7.78;2.80;;;16.70;99.90;;;;;;4978005;28;20706;-87
2023/09/20 05:52:40;;;;;;;7.50;3.20;;;16.70;99.90;;;;;;4995080;28;20592;-88
2023/09/20 05:55:10;;;;;;;5.20;3.30;;;16.70;99.90;;;;;;4995311;28;20167;-88
2023/09/20 05:57:35;;;;;;;6.47;2.92;;;16.70;99.90;;;;;;4980722;28;20181;-88
2023/09/20 06:00:09;;;;;;;5.63;3.10;;;16.80;99.90;;;;;;4981832;28;20196;-87
2023/09/20 06:02:35;;;;;;;4.72;2.90;;;16.70;99.90;;;;;;4982038;28;20234;-88
2023/09/20 06:05:00;;;;;;;4.35;2.72;;;16.70;99.90;;;;;;4982066;28;20181;-88
2023/09/20 06:07:28;;;;;;;6.78;3.00;;;16.70;99.90;;;;;;4998602;28;20286;-88
2023/09/20 06:09:54;;;;;;;6.80;3.03;;;16.70;99.90;;;;;;4982725;28;20200;-88
2023/09/20 06:12:19;;;;;;;5.93;3.35;;;16.70;99.90;;;;;;5000108;28;20169;-88
2023/09/20 06:14:45;;;;;;;7.10;2.85;;;16.80;99.90;;;;;;4981237;28;20544;-88
2023/09/20 06:17:12;;;;;;;5.32;2.60;;;16.80;99.90;;;;;;4982152;28;20181;-88
2023/09/20 06:19:38;;;;;;;5.57;2.85;;;16.70;99.90;;;;;;4982380;28;20254;-88
2023/09/20 06:22:04;;;;;;;7.65;2.70;;;16.70;99.90;;;;;;4981529;28;20184;-88
2023/09/20 06:24:29;;;;;;;5.68;3.03;;;16.70;99.90;;;;;;4981679;28;20180;-88
2023/09/20 06:26:55;;;;;;;4.72;2.95;;;16.70;99.90;;;;;;4999030;28;20173;-88
2023/09/20 06:29:21;;;;;;;4.50;2.70;;;16.80;99.90;;;;;;4980739;28;20176;-87
2023/09/20 06:31:47;;;;;;;7.72;3.17;;;16.80;99.90;;;;;;4998507;28;20196;-88
2023/09/20 06:34:17;;;;;;;4.72;3.08;;;16.80;99.90;;;;;;4981394;28;20181;-88
2023/09/20 06:36:43;;;;;;;3.70;2.80;;;16.90;99.90;;;;;;4980874;28;20515;-88
2023/09/20 06:39:09;;;;;;;6.10;2.90;;;16.90;99.90;;;;;;4980768;28;20183;-88
2023/09/20 06:41:34;;;;;;;5.55;2.88;;;17.00;99.90;;;;;;4980500;28;20200;-88
2023/09/20 06:44:01;;;;;;;4.72;2.90;;;17.10;99.90;;;;;;4980608;28;20176;-88
2023/09/20 06:46:26;;;;;;;6.80;3.30;;;17.20;99.90;;;;;;4980573;28;20662;-88
2023/09/20 06:48:55;;;;;;;8.73;3.15;;;17.30;99.90;;;;;;4996516;28;20211;-88
2023/09/20 06:51:21;;;;;;;4.70;3.15;;;17.50;99.90;;;;;;4996755;28;20197;-88
2023/09/20 06:53:48;;;;;;;5.43;3.15;;;17.70;99.90;;;;;;4980691;28;20172;-88
2023/09/20 06:56:14;;;;;;;5.97;2.65;;;17.90;99.90;;;;;;4980811;28;20176;-88
2023/09/20 06:58:40;;;;;;;8.52;3.00;;;18.10;99.90;;;;;;4981350;28;20247;-88
2023/09/20 07:01:06;;;;;;;4.90;3.17;;;18.20;99.90;;;;;;4980565;28;20200;-88
2023/09/20 07:03:32;;;;;;;5.93;2.60;;;18.20;99.90;;;;;;4997794;28;20197;-88
2023/09/20 07:05:59;;;;;;;7.22;2.70;;;18.30;99.90;;;;;;4980251;28;20191;-88
2023/09/20 07:08:25;;;;;;;5.78;2.92;;;18.40;99.90;;;;;;4979460;28;20675;-88
2023/09/20 07:10:51;;;;;;;4.32;2.65;;;18.50;99.90;;;;;;4997733;28;20203;-88
2023/09/20 07:13:18;;;;;;;4.88;2.90;;;18.50;99.90;;;;;;4997808;28;20168;-88
2023/09/20 07:15:44;;;;;;;7.85;2.90;;;18.60;99.90;;;;;;4997680;28;20215;-88
2023/09/20 07:18:13;;;;;;;5.78;2.90;;;18.70;99.90;;;;;;4980471;28;20231;-88
2023/09/20 07:20:40;;;;;;;8.93;3.22;;;18.70;99.90;;;;;;4980052;28;20300;-88
2023/09/20 07:23:12;;;;;;;6.22;2.95;;;18.70;99.90;;;;;;4979863;28;20600;-88
2023/09/20 07:25:38;;;;;;;5.28;2.58;;;18.80;99.90;;;;;;4980010;28;20243;-88
2023/09/20 07:28:06;;;;;;;4.35;2.90;;;18.80;99.90;;;;;;4980017;28;20208;-88
2023/09/20 07:30:35;;;;;;;7.28;3.50;;;18.70;99.90;;;;;;4997400;28;20196;-88
2023/09/20 07:33:03;;;;;;;6.78;2.90;;;18.50;99.90;;;;;;4980167;28;20259;-88
2023/09/20 07:35:38;;;;;;;4.47;2.63;;;18.40;99.90;;;;;;4997713;28;20179;-87
2023/09/20 07:38:20;;;;;;;4.78;2.85;;;18.40;99.90;;;;;;4979415;28;20738;-88
2023/09/20 07:40:50;;;;;;;5.32;3.10;;;18.40;99.90;;;;;;4979389;28;20648;-88
2023/09/20 07:43:18;;;;;;;5.70;2.70;;;18.50;99.90;;;;;;4979506;28;20184;-88
2023/09/20 07:45:44;;;;;;;8.65;2.90;;;18.50;99.90;;;;;;4995991;28;20193;-88
2023/09/20 07:48:16;;;;;;;5.15;2.78;;;18.50;99.90;;;;;;4995890;28;20223;-88
2023/09/20 07:50:50;;;;;;;6.35;2.75;;;18.50;99.90;;;;;;4997349;28;20199;-88
2023/09/20 07:53:18;;;;;;;4.85;2.50;;;18.50;99.90;;;;;;4979392;28;20172;-87
2023/09/20 07:55:55;;;;;;;4.18;2.60;;;18.50;99.90;;;;;;4979724;28;20252;-88
2023/09/20 07:58:21;;;;;;;4.22;2.50;;;18.60;99.90;;;;;;4979707;28;20645;-88
2023/09/20 08:00:49;;;;;;;7.80;2.85;;;18.60;99.90;;;;;;4997580;28;20204;-88
2023/09/20 08:03:15;;;;;;;3.03;2.20;;;18.70;99.90;;;;;;4979852;28;20180;-88
2023/09/20 08:05:44;;;;;;;5.63;2.30;;;18.80;99.90;;;;;;4979325;28;20192;-88
2023/09/20 08:08:10;;;;;;;5.43;3.00;;;18.90;99.90;;;;;;4979801;28;20667;-89
2023/09/20 08:10:38;;;;;;;3.58;2.45;;;19.10;99.90;;;;;;4997666;28;20193;-88
2023/09/20 08:13:05;;;;;;;5.82;2.90;;;19.10;99.90;;;;;;4979993;28;20216;-88
2023/09/20 08:15:35;;;;;;;5.60;2.42;;;19.00;99.90;;;;;;4979591;28;20191;-88
2023/09/20 08:20:46;;;;;;;3.10;2.50;;;18.80;99.90;;;;;;4996334;28;20238;-88
2023/09/20 09:01:48;;;;;;;3.38;2.30;;;19.30;99.90;;;;;;4997150;28;20235;-88
2023/09/20 09:04:17;;;;;;;5.70;2.58;;;19.30;99.90;;;;;;4979172;28;20184;-88
2023/09/20 09:06:43;;;;;;;5.78;2.30;;;19.30;99.90;;;;;;4978860;28;20184;-88
2023/09/20 09:09:10;;;;;;;2.42;2.00;;;19.40;99.90;;;;;;4978924;28;20204;-88
2023/09/20 09:11:36;;;;;;;3.47;1.95;;;19.40;99.90;;;;;;4978791;28;20197;-88
2023/09/20 09:14:03;;;;;;;3.15;2.25;;;19.40;99.90;;;;;;4979413;28;20184;-88
2023/09/20 09:16:35;;;;;;;2.53;1.90;;;19.40;99.90;;;;;;4978477;28;20271;-88
2023/09/20 09:19:01;;;;;;;5.10;2.42;;;19.50;99.90;;;;;;4996155;28;20234;-88
2023/09/20 09:21:27;;;;;;;3.78;2.08;;;19.50;99.90;;;;;;4978304;28;20283;-88
2023/09/20 09:23:53;;;;;;;3.63;1.98;;;19.60;99.90;;;;;;4978465;28;20172;-88
2023/09/20 09:26:19;;;;;;;3.47;2.10;;;19.70;99.90;;;;;;4978106;28;20188;-88
2023/09/20 09:28:45;;;;;;;3.97;2.40;;;19.80;99.90;;;;;;4995805;28;20243;-88
2023/09/20 09:31:13;;;;;;;6.80;2.25;;;19.70;99.90;;;;;;4977608;28;20200;-88
2023/09/20 09:33:39;;;;;;;7.57;2.53;;;19.80;99.90;;;;;;4978169;28;20180;-88
2023/09/20 09:36:06;;;;;;;4.60;2.30;;;19.80;99.90;;;;;;4977987;28;20168;-88
2023/09/20 09:38:34;;;;;;;4.57;2.30;;;19.80;99.90;;;;;;4977648;28;20184;-88
2023/09/20 09:41:01;;;;;;;4.72;2.28;;;19.70;99.90;;;;;;4978019;28;20197;-88
2023/09/20 09:43:28;;;;;;;4.95;2.40;;;19.70;99.90;;;;;;4977580;28;20183;-87
2023/09/20 09:45:55;;;;;;;2.40;2.20;;;19.50;99.90;;;;;;4978059;28;20655;-88
2023/09/20 09:48:24;;;;;;;3.17;2.05;;;19.40;99.90;;;;;;4993791;28;20577;-88
2023/09/20 09:50:52;;;;;;;5.05;2.13;;;19.40;99.90;;;;;;4995782;28;20267;-86
2023/09/20 09:53:21;;;;;;;4.57;2.35;;;19.40;99.90;;;;;;4977952;28;20180;-86
2023/09/20 09:55:49;;;;;;;3.63;2.30;;;19.30;99.90;;;;;;4978277;28;20561;-86
2023/09/20 09:58:15;;;;;;;4.28;2.30;;;19.30;99.90;;;;;;4977980;28;20271;-86
2023/09/20 10:00:45;;;;;;;3.65;2.35;;;19.30;99.90;;;;;;4977963;28;20298;-86
2023/09/20 10:03:23;;;;;;;4.57;2.38;;;19.30;99.90;;;;;;4977816;28;20185;-86
2023/09/20 10:05:52;;;;;;;3.85;2.40;;;19.30;99.90;;;;;;4977914;28;20623;-86
2023/09/20 10:08:23;;;;;;;4.30;2.28;;;19.30;99.90;;;;;;4977782;28;20250;-86
2023/09/20 10:10:49;;;;;;;5.28;2.22;;;19.40;99.90;;;;;;4977762;28;20199;-87
2023/09/20 10:13:16;;;;;;;3.92;2.17;;;19.50;99.90;;;;;;4977547;28;20584;-87
2023/09/20 10:15:43;;;;;;;4.15;2.20;;;19.60;99.90;;;;;;4995234;28;20233;-86
2023/09/20 10:18:08;;;;;;;3.85;2.17;;;19.80;99.90;;;;;;4977787;28;20188;-86
2023/09/20 10:21:01;;;;;;;8.63;2.40;;;19.90;99.90;;;;;;4977364;28;20312;-86
2023/09/20 10:23:27;;;;;;;2.90;1.80;;;20.10;99.90;;;;;;4978727;28;20181;-86
2023/09/20 10:25:56;;;;;;;5.20;2.13;;;20.30;99.90;;;;;;4978307;28;20180;-86
2023/09/20 10:28:24;;;;;;;5.32;2.20;;;20.40;99.90;;;;;;4979019;28;20207;-86
2023/09/20 10:31:03;;;;;;;4.18;2.22;;;20.40;99.90;;;;;;4994116;28;20204;-86
2023/09/20 10:33:48;;;;;;;2.67;1.90;;;20.60;99.90;;;;;;4978762;28;20184;-86
2023/09/20 10:36:30;;;;;;;5.28;2.08;;;20.70;99.90;;;;;;4994198;28;20232;-86
2023/09/20 10:39:16;;;;;;;2.25;1.98;;;20.90;99.90;;;;;;4977603;28;20231;-87
2023/09/20 10:41:43;;;;;;;2.90;2.05;;;21.10;99.90;;;;;;4994047;28;20203;-87
2023/09/20 10:44:35;;;;;;;4.28;2.03;;;21.00;99.90;;;;;;4979646;28;20182;-87
2023/09/20 10:47:11;;;;;;;3.05;1.92;;;21.10;99.90;;;;;;4981817;28;20632;-86
2023/09/20 10:49:49;;;;;;;2.28;2.08;;;21.10;99.90;;;;;;4981463;28;20177;-86
2023/09/20 10:52:34;;;;;;;3.85;1.92;;;21.10;99.90;;;;;;4981560;28;20639;-86
2023/09/20 10:55:24;;;;;;;2.95;2.00;;;21.10;99.90;;;;;;4980802;28;20181;-86
2023/09/20 10:57:50;;;;;;;3.83;2.10;;;20.90;99.90;;;;;;4996918;28;20322;-86
2023/09/20 11:00:30;;;;;;;3.88;2.00;;;20.80;99.90;;;;;;4980516;28;20200;-86
2023/09/20 11:02:56;;;;;;;3.25;1.95;;;20.80;99.90;;;;;;4981048;28;20601;-86
2023/09/20 11:05:28;;;;;;;4.53;2.10;;;20.80;99.90;;;;;;4981090;28;20181;-86
2023/09/20 11:07:55;;;;;;;3.47;2.08;;;20.90;99.90;;;;;;4980767;28;20204;-85
2023/09/20 11:10:23;;;;;;;3.42;2.10;;;20.90;99.90;;;;;;4999115;28;20223;-86
2023/09/20 11:12:50;;;;;;;5.60;2.10;;;20.90;99.90;;;;;;4981545;28;20180;-86
2023/09/20 11:15:16;;;;;;;3.85;2.10;;;21.10;99.90;;;;;;4996768;28;20200;-86
2023/09/20 11:17:42;;;;;;;3.85;1.98;;;21.10;99.90;;;;;;4997044;28;20231;-86
2023/09/20 11:20:11;;;;;;;4.95;2.08;;;21.20;99.90;;;;;;4981002;28;20201;-86
2023/09/20 11:22:38;;;;;;;3.15;2.00;;;21.20;99.90;;;;;;4980346;28;20184;-86
2023/09/20 11:25:07;;;;;;;5.03;2.10;;;21.30;99.90;;;;;;4980876;28;20180;-86
2023/09/20 11:27:38;;;;;;;4.47;2.33;;;21.50;99.90;;;;;;4980218;28;20656;-86
2023/09/20 11:30:05;;;;;;;3.70;2.22;;;21.80;99.90;;;;;;4996559;28;20227;-86
2023/09/20 11:32:30;;;;;;;4.10;2.10;;;21.90;99.90;;;;;;4980410;28;20181;-86
2023/09/20 11:34:56;;;;;;;2.03;1.83;;;21.80;99.90;;;;;;4981137;28;20318;-86
2023/09/20 11:37:22;;;;;;;5.65;2.50;;;21.70;99.90;;;;;;4980269;28;20187;-86
2023/09/20 11:39:50;;;;;;;2.50;2.15;;;21.80;99.90;;;;;;4980208;28;20200;-86
2023/09/20 11:42:32;;;;;;;3.05;2.00;;;22.00;99.90;;;;;;4980422;28;20264;-86
2023/09/20 11:45:03;;;;;;;2.10;1.80;;;22.40;99.90;;;;;;4980669;28;20176;-86
2023/09/20 11:47:34;;;;;;;3.47;1.90;;;22.70;99.90;;;;;;4980339;28;20197;-86
2023/09/20 11:50:00;;;;;;;1.90;1.63;;;22.80;99.90;;;;;;4979968;28;20241;-86
2023/09/20 11:52:27;;;;;;;2.17;1.88;;;22.60;99.90;;;;;;4980304;28;20208;-86
2023/09/20 11:55:03;;;;;;;2.95;1.90;;;22.20;99.90;;;;;;4978665;28;20177;-85
2023/09/20 11:57:29;;;;;;;5.40;2.35;;;22.00;99.90;;;;;;4980116;28;20661;-87
2023/09/20 11:59:55;;;;;;;3.70;1.90;;;21.90;99.90;;;;;;4979752;28;20681;-86
2023/09/20 12:02:21;;;;;;;3.00;2.00;;;21.70;99.90;;;;;;4979952;28;20180;-87
2023/09/20 12:04:53;;;;;;;4.00;2.17;;;21.70;99.90;;;;;;4979541;28;20192;-86
2023/09/20 12:07:18;;;;;;;6.18;1.98;;;21.70;99.90;;;;;;4988022;28;20238;-87
2023/09/20 12:09:45;;;;;;;2.80;1.92;;;21.70;99.90;;;;;;4979925;28;20200;-86
2023/09/20 12:12:10;;;;;;;3.92;2.10;;;21.70;99.90;;;;;;4980089;28;20177;-86
2023/09/20 12:14:40;;;;;;;3.15;2.10;;;21.60;99.90;;;;;;4979382;28;20550;-86
2023/09/20 12:17:07;;;;;;;5.72;2.50;;;21.50;99.90;;;;;;4979862;28;20717;-86
2023/09/20 12:19:33;;;;;;;2.38;1.95;;;21.50;99.90;;;;;;4996285;28;20180;-87
2023/09/20 12:22:00;;;;;;;2.25;1.80;;;21.70;99.90;;;;;;4996991;28;20169;-86
2023/09/20 12:24:26;;;;;;;3.05;1.88;;;22.10;99.90;;;;;;4995929;28;20670;-86
2023/09/20 12:26:54;;;;;;;3.25;2.10;;;22.30;99.90;;;;;;4981311;28;20310;-86
2023/09/20 12:29:20;;;;;;;4.45;1.90;;;22.50;99.90;;;;;;4980854;28;20675;-86
2023/09/20 12:31:47;;;;;;;3.78;1.95;;;22.40;99.90;;;;;;4980562;28;20227;-86
2023/09/20 12:34:14;;;;;;;6.20;2.05;;;22.60;99.90;;;;;;4979745;28;20177;-86
2023/09/20 12:36:39;;;;;;;2.05;1.60;;;22.80;99.90;;;;;;4979720;28;20266;-87
2023/09/20 12:39:08;;;;;;;3.00;1.90;;;22.60;99.90;;;;;;4981958;28;20189;-86
2023/09/20 12:41:37;;;;;;;2.00;1.80;;;22.40;99.90;;;;;;4982396;28;20196;-86
2023/09/20 12:44:02;;;;;;;3.63;2.17;;;22.20;99.90;;;;;;4980337;28;20235;-86
2023/09/20 12:46:29;;;;;;;3.35;2.22;;;22.10;99.90;;;;;;4979673;28;20184;-86
2023/09/20 12:48:57;;;;;;;4.72;2.10;;;22.00;99.90;;;;;;4996703;28;20195;-86
2023/09/20 12:51:22;;;;;;;3.42;2.40;;;21.90;99.90;;;;;;4979120;28;20201;-86
2023/09/20 12:53:49;;;;;;;5.43;2.25;;;22.00;99.90;;;;;;4978883;28;20223;-86
2023/09/20 12:56:15;;;;;;;5.90;2.05;;;22.00;99.90;;;;;;4995267;28;20643;-86
2023/09/20 12:58:41;;;;;;;4.97;2.03;;;22.20;99.90;;;;;;4978859;28;20188;-86
2023/09/20 13:01:11;;;;;;;4.28;2.03;;;22.50;99.90;;;;;;4978845;28;20228;-86
2023/09/20 13:03:43;;;;;;;6.85;2.20;;;22.80;99.90;;;;;;4978709;28;20188;-87
2023/09/20 13:06:13;;;;;;;3.13;2.00;;;23.10;99.90;;;;;;4978081;28;20259;-86
2023/09/20 13:08:40;;;;;;;5.32;2.35;;;23.00;99.90;;;;;;4978541;28;20205;-86
2023/09/20 13:11:10;;;;;;;4.43;2.08;;;23.00;99.90;;;;;;4995891;28;20243;-86
2023/09/20 13:13:38;;;;;;;5.03;2.10;;;23.10;99.90;;;;;;4978485;28;20180;-87
2023/09/20 13:16:06;;;;;;;4.32;2.17;;;23.30;99.90;;;;;;4978421;28;20185;-86
2023/09/20 13:18:32;;;;;;;4.80;2.00;;;23.60;99.90;;;;;;4996071;28;20181;-86
2023/09/20 13:20:58;;;;;;;4.53;2.10;;;23.80;99.90;;;;;;4978019;28;20196;-86
2023/09/20 13:23:25;;;;;;;4.57;2.22;;;23.70;99.90;;;;;;4978491;28;20235;-86
2023/09/20 13:25:52;;;;;;;3.97;2.03;;;23.70;99.90;;;;;;4978565;28;20275;-86
2023/09/20 13:28:18;;;;;;;8.02;2.58;;;23.70;99.90;;;;;;4995395;28;20220;-86
2023/09/20 13:30:44;;;;;;;5.85;2.08;;;23.70;99.90;;;;;;4995507;28;20196;-86